Архив погоды в Барабинске

Метеограмма Барабинск
Четверг, 29 Июня
Время местн. Темп Ветер Видим Явления Облачность нижн/средн/верх Атм. давл. Влжн Точка росы ВНГО R Сост. почвы Tg s
Напр Скр Прв ур.ст ур.м изм
04:00 +19.6° Ю 3 - 20 км - переменная облачность 747 758 -0.5 67% +13.4° - - - - -
01:00 +19.3° Ю 2 - 20 км - ясно 748 758 +0.1 71% +14° более 2.5 км - - - -
Среда, 28 Июня
Время местн. Темп Ветер Видим Явления Облачность нижн/средн/верх Атм. давл. Влжн Точка росы ВНГО R Сост. почвы Tg s
Напр Скр Прв ур.ст ур.м изм
22:00 +23.3° Ю 2 - 20 км - переменная облачность 748 758 -0.2 60% +15.1° более 2.5 км - - - -
19:00 +26.8° Ю 4 - 20 км - переменная облачность 748 758 -0.7 43% +13.1° 1 км 0 - - -
16:00 +26.1° Ю 4 - 20 км - переменная облачность 749 759 -0.8 42% +12.2° 1 км - - - -
13:00 +24.1° Ю 4 - 20 км - ясно 750 760 -0.1 40% +9.8° более 2.5 км - - - -
10:00 +21.1° Ю-З 3 - 20 км - ясно 750 760 +0.5 55% +11.7° более 2.5 км - - - -
07:00 +14.4° Ю-З 1 - 20 км - ясно 749 760 +0.6 83% +11.5° более 2.5 км 0 Влажная (без луж) - -
04:00 - +12.8° Ю-З 2 - - - - 749 759 +0.2 83% +10° - - - - -
01:00 +14.3° Ю,Ю-З 2 - 20 км - переменная облачность 748 759 +0.5 78% +10.6° более 2.5 км - - - -
Вторник, 27 Июня
Время местн. Темп Ветер Видим Явления Облачность нижн/средн/верх Атм. давл. Влжн Точка росы ВНГО R Сост. почвы Tg s
Напр Скр Прв ур.ст ур.м изм
22:00 +17.9° штиль 0 - 20 км - преимущественно облачно 748 758 +0.3 73% +13° - - - - -
19:00 +19.7° З 2 - 20 км облака рассеиваются {ливневые осадки} преимущественно облачно 748 758 +0.4 67% +13.4° 1 км 2 - - -
16:00 +17.8° С-З 1 - 10 км слабый ливневый дождь облачно 747 758 +0.5 77% +13.7° 1 км - - - -
13:00 +19.9° З,С-З 3 - 20 км - преимущественно облачно 747 757 +0.5 59% +11.6° 1 км - - - -
10:00 +18.5° С-З 2 - 20 км - облачно с прояснениями 746 757 +0.7 67% +12.3° 1 км - - - -
07:00 +16.6° З,С-З 1 - 20 км - облачно с прояснениями 746 756 +0.9 77% +12.6° - 0 Влажная (без луж) - -
04:00 +18.8° З 2 - 20 км - облачно с прояснениями 745 755 +0.5 69% +13.1° - - - - -
01:00 +20.6° Ю,Ю-З 2 - 20 км - переменная облачность 744 755 +0.5 71% +15.2° более 2.5 км - - - -
Понедельник, 26 Июня
Время местн. Темп Ветер Видим Явления Облачность нижн/средн/верх Атм. давл. Влжн Точка росы ВНГО R Сост. почвы Tg s
Напр Скр Прв ур.ст ур.м изм
22:00 +24.6° Ю 2 - 20 км - переменная облачность 744 754 +0.4 57% +15.5° более 2.5 км - - - -
19:00 +27.6° Ю-В 4 - 20 км гроза облачно с прояснениями 744 754 -0.9 45% +14.5° 1 км 0 - - -
16:00 +28.1° Ю 3 - 20 км - переменная облачность 744 755 -0.9 39% +12.9° более 2.5 км - - - -
13:00 +26.1° Ю-З 2 - 20 км - ясно 745 756 -0.5 43% +12.4° более 2.5 км - - - -
10:00 +23.8° Ю,Ю-З 2 - 20 км - ясно 746 756 0 60% +15.5° более 2.5 км - - - -
07:00 +16.8° Ю 1 - 20 км - облачно с прояснениями 746 756 +0.5 92% +15.5° более 2.5 км 0 Сырая (есть малые или большие лужи) +15° -
04:00 +15.7° Ю,Ю-З 1 - 20 км - переменная облачность 745 756 -0.2 90% +14.1° 1 км - - - -
01:00 +17.9° Ю-З 1 - 20 км - облачно с прояснениями 745 756 +0.8 82% +14.8° 1 км - - - -